Luzern, Switzerland
Current Conditions -  °F | °C
As of 2:50 AM on Sunday 26 Oct 2014 (Local Time) from LSZC Reporting Station
Overcast Overcast  
Wind Chill: 50°   Ceiling: 4200
Heat Index: 50°   Visibility: 3mi
Dew Point: 48°   Wind: 1mph
Humidity: 94%   Direction: NA
Pressure: 30.27"   Gusts: NA
Location:  47.06°N, 8.3°E
Report Text: LSZC 260050Z AUTO VRB01KT 5000 FEW010 BKN042 OVC060 10/09 Q1025
Loading
Personal Weather Stations






























Interactive Weather Map
Tropical Storm Tracking
New forecast layout! Learn more

10-Day Weather Forecast

Advertisements
Track Severe Weather on mobile